Time;durP1;ratioP1;P1;durP2;ratioP2;P2;SDS_P1;SDS_P2;PMS_P1;PMS_P2;Temp;Humidity;BMP_temperature;BMP_pressure;BME280_temperature;BME280_humidity;BME280_pressure;Samples;Min_cycle;Max_cycle;Signal;HPM_P1;HPM_P2
2024/04/13 00:02:15;;;;;;;0.15;0.13;;;12.20;99.90;;;;;;5397941;26;20007;-63
2024/04/13 00:04:42;;;;;;;0.10;0.10;;;12.20;99.90;;;;;;5403328;26;20013;-62
2024/04/13 00:07:09;;;;;;;0.10;0.10;;;12.30;99.90;;;;;;5404429;26;20552;-63
2024/04/13 00:09:36;;;;;;;0.10;0.10;;;12.40;99.90;;;;;;5403431;26;20006;-63
2024/04/13 00:12:03;;;;;;;0.00;0.00;;;12.40;99.90;;;;;;5404688;26;20322;-63
2024/04/13 00:14:30;;;;;;;0.00;0.00;;;12.40;99.90;;;;;;5403209;26;20004;-62
2024/04/13 00:16:57;;;;;;;0.10;0.10;;;12.50;99.90;;;;;;5403820;26;20442;-63
2024/04/13 00:19:24;;;;;;;0.08;0.08;;;12.50;99.90;;;;;;5405362;26;20039;-63
2024/04/13 00:21:51;;;;;;;0.08;0.08;;;12.50;99.90;;;;;;5402368;26;20018;-63
2024/04/13 00:24:18;;;;;;;0.10;0.10;;;12.60;99.90;;;;;;5404996;26;20359;-63
2024/04/13 00:26:45;;;;;;;0.00;0.00;;;12.60;99.90;;;;;;5402877;26;20007;-63
2024/04/13 00:29:13;;;;;;;0.00;0.00;;;12.60;99.90;;;;;;5404314;26;20004;-63
2024/04/13 00:31:40;;;;;;;0.00;0.00;;;12.60;99.90;;;;;;5402532;26;20008;-63
2024/04/13 00:34:07;;;;;;;0.00;0.00;;;12.60;99.90;;;;;;5404689;26;20366;-62
2024/04/13 00:36:35;;;;;;;0.10;0.10;;;12.60;99.90;;;;;;5391678;26;20004;-63
2024/04/13 00:39:04;;;;;;;0.20;0.10;;;12.60;99.90;;;;;;5403759;26;20010;-63
2024/04/13 00:41:32;;;;;;;0.00;0.00;;;12.60;99.90;;;;;;5387421;26;20044;-63
2024/04/13 00:44:00;;;;;;;0.10;0.10;;;12.60;99.90;;;;;;5402904;26;20007;-63
2024/04/13 00:46:31;;;;;;;0.10;0.10;;;12.70;99.90;;;;;;5400636;26;20100;-63
2024/04/13 00:49:10;;;;;;;0.00;0.00;;;12.70;99.90;;;;;;5403907;26;20027;-63
2024/04/13 00:51:38;;;;;;;0.00;0.00;;;12.60;99.90;;;;;;5399125;26;20879;-62
2024/04/13 00:54:07;;;;;;;0.00;0.00;;;12.60;99.90;;;;;;5404145;26;19997;-62
2024/04/13 00:56:34;;;;;;;0.00;0.00;;;12.60;99.90;;;;;;5399132;26;20007;-62
2024/04/13 00:59:01;;;;;;;0.00;0.00;;;12.60;99.90;;;;;;5404391;26;20093;-63
2024/04/13 01:01:29;;;;;;;0.00;0.00;;;12.60;99.90;;;;;;5402681;26;20003;-63
2024/04/13 01:03:56;;;;;;;0.10;0.10;;;12.60;99.90;;;;;;5403459;26;20454;-63
2024/04/13 01:06:24;;;;;;;0.00;0.00;;;12.60;99.90;;;;;;5402954;26;20014;-63
2024/04/13 01:08:51;;;;;;;0.00;0.00;;;12.70;99.90;;;;;;5400218;26;20010;-63
2024/04/13 01:11:18;;;;;;;0.05;0.05;;;12.60;99.90;;;;;;5402156;26;20085;-63
2024/04/13 01:13:45;;;;;;;0.03;0.03;;;12.60;99.90;;;;;;5402776;26;19999;-63
2024/04/13 01:16:27;;;;;;;0.00;0.00;;;12.60;99.90;;;;;;5403704;26;21020;-63
2024/04/13 01:18:54;;;;;;;0.00;0.00;;;12.60;99.90;;;;;;5401064;26;20007;-63
2024/04/13 01:21:21;;;;;;;0.10;0.10;;;12.60;99.90;;;;;;5401510;26;20007;-63
2024/04/13 01:23:57;;;;;;;0.08;0.08;;;12.60;99.90;;;;;;5402724;26;20013;-63
2024/04/13 01:26:24;;;;;;;0.00;0.00;;;12.60;99.90;;;;;;5403272;26;20098;-63
2024/04/13 01:28:51;;;;;;;0.10;0.10;;;12.60;99.90;;;;;;5402656;26;20007;-63
2024/04/13 01:31:18;;;;;;;0.00;0.00;;;12.60;99.90;;;;;;5401802;26;20880;-63
2024/04/13 01:33:45;;;;;;;0.00;0.00;;;12.60;99.90;;;;;;5401447;26;20022;-63
2024/04/13 01:36:12;;;;;;;0.00;0.00;;;12.60;99.90;;;;;;5395631;26;20022;-62
2024/04/13 01:38:39;;;;;;;0.00;0.00;;;12.60;99.90;;;;;;5403511;26;20028;-63
2024/04/13 01:41:06;;;;;;;0.03;0.03;;;12.60;99.90;;;;;;5400696;26;20019;-63
2024/04/13 01:43:33;;;;;;;0.10;0.10;;;12.60;99.90;;;;;;5402854;26;20010;-63
2024/04/13 01:46:00;;;;;;;0.00;0.00;;;12.60;99.90;;;;;;5397817;26;20223;-63
2024/04/13 01:48:28;;;;;;;0.00;0.00;;;12.60;99.90;;;;;;5385344;26;20022;-63
2024/04/13 01:50:55;;;;;;;0.00;0.00;;;12.50;99.90;;;;;;5402624;26;20007;-63
2024/04/13 01:53:21;;;;;;;0.10;0.00;;;12.50;99.90;;;;;;5402522;26;20010;-63
2024/04/13 01:55:48;;;;;;;0.03;0.03;;;12.50;99.90;;;;;;5402052;26;20007;-62
2024/04/13 01:58:15;;;;;;;0.00;0.00;;;12.50;99.90;;;;;;5398228;26;20022;-62
2024/04/13 02:00:43;;;;;;;0.00;0.00;;;12.50;99.90;;;;;;5396445;26;20564;-63
2024/04/13 02:03:11;;;;;;;0.08;0.00;;;12.50;99.90;;;;;;5401492;26;20003;-63
2024/04/13 02:05:38;;;;;;;0.00;0.00;;;12.50;99.90;;;;;;5402319;26;20032;-63
2024/04/13 02:08:06;;;;;;;0.10;0.00;;;12.50;99.90;;;;;;5398666;26;20446;-62
2024/04/13 02:10:33;;;;;;;0.00;0.00;;;12.40;99.90;;;;;;5402574;26;20010;-63
2024/04/13 02:13:08;;;;;;;0.05;0.00;;;12.40;99.90;;;;;;5401690;26;20344;-63
2024/04/13 02:15:36;;;;;;;0.00;0.00;;;12.40;99.90;;;;;;5402631;26;20035;-63
2024/04/13 02:18:04;;;;;;;0.10;0.10;;;12.40;99.90;;;;;;5400768;26;20021;-63
2024/04/13 02:20:31;;;;;;;1.95;0.10;;;12.40;99.90;;;;;;5403008;26;20501;-62
2024/04/13 02:22:58;;;;;;;0.00;0.00;;;12.40;99.90;;;;;;5401120;26;20021;-63
2024/04/13 02:25:25;;;;;;;0.55;0.00;;;12.40;99.90;;;;;;5403741;26;20470;-63
2024/04/13 02:27:52;;;;;;;0.00;0.00;;;12.30;99.90;;;;;;5394217;26;20007;-63
2024/04/13 02:30:19;;;;;;;0.05;0.05;;;12.30;99.90;;;;;;5401623;26;20348;-62
2024/04/13 02:32:46;;;;;;;0.00;0.00;;;12.30;99.90;;;;;;5378324;26;20008;-62
2024/04/13 02:35:13;;;;;;;0.00;0.00;;;12.30;99.90;;;;;;5402931;26;20082;-63
2024/04/13 02:37:41;;;;;;;0.00;0.00;;;12.20;99.90;;;;;;5398527;26;20463;-63
2024/04/13 02:40:09;;;;;;;0.00;0.00;;;12.20;99.90;;;;;;5400392;26;19999;-63
2024/04/13 02:42:37;;;;;;;0.00;0.00;;;12.20;99.90;;;;;;5401160;26;20373;-63
2024/04/13 02:45:05;;;;;;;0.00;0.00;;;12.20;99.90;;;;;;5401676;26;20008;-63
2024/04/13 02:47:33;;;;;;;0.00;0.00;;;12.10;99.90;;;;;;5400817;26;20022;-64
2024/04/13 02:50:01;;;;;;;0.30;0.00;;;12.10;99.90;;;;;;5402132;26;20033;-63
2024/04/13 02:52:29;;;;;;;0.10;0.10;;;12.10;99.90;;;;;;5401674;26;20007;-63
2024/04/13 02:54:56;;;;;;;0.00;0.00;;;12.20;99.90;;;;;;5402284;26;20443;-63
2024/04/13 02:57:24;;;;;;;0.00;0.00;;;12.10;99.90;;;;;;5396869;26;20454;-63
2024/04/13 02:59:51;;;;;;;0.00;0.00;;;12.10;99.90;;;;;;5399377;26;20078;-62
2024/04/13 03:02:19;;;;;;;0.00;0.00;;;12.10;99.90;;;;;;5400395;26;20018;-63
2024/04/13 03:04:50;;;;;;;0.00;0.00;;;12.10;99.90;;;;;;5402783;26;20007;-62
2024/04/13 03:07:17;;;;;;;0.00;0.00;;;12.10;99.90;;;;;;5398993;26;20625;-63
2024/04/13 03:09:47;;;;;;;0.10;0.10;;;12.10;99.90;;;;;;5399836;26;20004;-63
2024/04/13 03:12:15;;;;;;;0.00;0.00;;;12.10;99.90;;;;;;5401442;26;20018;-63
2024/04/13 03:14:43;;;;;;;0.00;0.00;;;12.10;99.90;;;;;;5392777;26;20003;-63
2024/04/13 03:17:10;;;;;;;0.63;0.10;;;12.00;99.90;;;;;;5395017;26;20008;-63
2024/04/13 03:19:38;;;;;;;0.00;0.00;;;12.00;99.90;;;;;;5404260;26;20007;-63
2024/04/13 03:22:06;;;;;;;0.10;0.03;;;12.00;99.90;;;;;;5403451;26;20003;-63
2024/04/13 03:24:34;;;;;;;0.00;0.00;;;12.00;99.90;;;;;;5404779;26;20010;-63
2024/04/13 03:27:04;;;;;;;0.00;0.00;;;12.00;99.90;;;;;;5404835;26;20003;-62
2024/04/13 03:29:38;;;;;;;0.00;0.00;;;11.90;99.90;;;;;;5401221;26;20051;-63
2024/04/13 03:32:05;;;;;;;0.00;0.00;;;11.90;99.90;;;;;;5403345;26;20007;-63
2024/04/13 03:34:33;;;;;;;0.05;0.05;;;11.90;99.90;;;;;;5405444;26;20021;-63
2024/04/13 03:37:00;;;;;;;0.00;0.00;;;11.80;99.90;;;;;;5403886;26;20008;-62
2024/04/13 03:39:28;;;;;;;0.00;0.00;;;11.80;99.90;;;;;;5405301;26;20007;-63
2024/04/13 03:41:56;;;;;;;0.00;0.00;;;11.70;99.90;;;;;;5404307;26;20004;-63
2024/04/13 03:44:23;;;;;;;0.00;0.00;;;11.70;99.90;;;;;;5404866;26;19999;-63
2024/04/13 03:46:50;;;;;;;0.00;0.00;;;11.70;99.90;;;;;;5403929;26;20018;-63
2024/04/13 03:49:17;;;;;;;0.00;0.00;;;11.60;99.90;;;;;;5402510;26;20004;-63
2024/04/13 03:51:44;;;;;;;0.00;0.00;;;11.60;99.90;;;;;;5404687;26;20004;-63
2024/04/13 03:54:11;;;;;;;0.10;0.10;;;11.60;99.90;;;;;;5403391;26;20014;-63
2024/04/13 03:56:38;;;;;;;0.00;0.00;;;11.60;99.90;;;;;;5404637;26;20441;-63
2024/04/13 03:59:06;;;;;;;0.00;0.00;;;11.50;99.90;;;;;;5404170;26;20048;-63
2024/04/13 04:01:34;;;;;;;0.00;0.00;;;11.60;99.90;;;;;;5403804;26;19995;-63
2024/04/13 04:04:01;;;;;;;0.00;0.00;;;11.60;99.90;;;;;;5403804;26;20384;-63
2024/04/13 04:06:28;;;;;;;0.00;0.00;;;11.60;99.90;;;;;;5402957;26;20000;-63
2024/04/13 04:08:55;;;;;;;0.00;0.00;;;11.50;99.90;;;;;;5396337;26;20007;-63
2024/04/13 04:11:22;;;;;;;0.00;0.00;;;11.50;99.90;;;;;;5403457;26;19999;-63
2024/04/13 04:13:49;;;;;;;1.98;0.30;;;11.50;99.90;;;;;;5405047;26;20007;-63
2024/04/13 04:16:16;;;;;;;0.00;0.00;;;11.50;99.90;;;;;;5403562;26;20437;-63
2024/04/13 04:18:43;;;;;;;0.00;0.00;;;11.50;99.90;;;;;;5403146;26;20008;-63
2024/04/13 04:21:10;;;;;;;0.00;0.00;;;11.50;99.90;;;;;;5388344;26;20015;-63
2024/04/13 04:23:37;;;;;;;0.00;0.00;;;11.50;99.90;;;;;;5392343;26;20023;-63
2024/04/13 04:26:06;;;;;;;0.00;0.00;;;11.50;99.90;;;;;;5399348;26;20469;-63
2024/04/13 04:28:33;;;;;;;0.00;0.00;;;11.40;99.90;;;;;;5402214;26;20022;-63
2024/04/13 04:31:11;;;;;;;0.00;0.00;;;11.40;99.90;;;;;;5403435;26;20035;-63
2024/04/13 04:33:38;;;;;;;0.00;0.00;;;11.40;99.90;;;;;;5393617;26;20018;-63
2024/04/13 04:36:07;;;;;;;0.00;0.00;;;11.40;99.90;;;;;;5400368;26;20044;-63
2024/04/13 04:38:34;;;;;;;0.00;0.00;;;11.40;99.90;;;;;;5398088;26;20015;-63
2024/04/13 04:41:01;;;;;;;0.00;0.00;;;11.40;99.90;;;;;;5396367;26;20051;-63
2024/04/13 04:43:28;;;;;;;0.00;0.00;;;11.30;99.90;;;;;;5389122;26;20008;-62
2024/04/13 04:46:01;;;;;;;0.00;0.00;;;11.30;99.90;;;;;;5382983;26;19999;-63
2024/04/13 04:48:29;;;;;;;0.10;0.10;;;11.30;99.90;;;;;;5388615;26;20023;-62
2024/04/13 04:50:59;;;;;;;0.00;0.00;;;11.30;99.90;;;;;;5395612;26;19999;-63
2024/04/13 04:53:27;;;;;;;0.00;0.00;;;11.30;99.90;;;;;;5397039;26;20008;-63
2024/04/13 04:55:55;;;;;;;0.00;0.00;;;11.30;99.90;;;;;;5397354;26;20000;-63
2024/04/13 04:58:21;;;;;;;0.00;0.00;;;11.30;99.90;;;;;;5401564;26;20003;-63
2024/04/13 05:00:49;;;;;;;0.00;0.00;;;11.30;99.90;;;;;;5399816;26;20017;-63
2024/04/13 05:03:16;;;;;;;1.35;0.10;;;11.30;99.90;;;;;;5396474;26;20337;-63
2024/04/13 05:05:43;;;;;;;0.00;0.00;;;11.40;99.90;;;;;;5396342;26;19996;-63
2024/04/13 05:08:10;;;;;;;0.00;0.00;;;11.30;99.90;;;;;;5398417;26;20022;-63
2024/04/13 05:10:37;;;;;;;0.00;0.00;;;11.30;99.90;;;;;;5401726;26;20014;-63
2024/04/13 05:13:04;;;;;;;0.00;0.00;;;11.40;99.90;;;;;;5402560;26;20017;-63
2024/04/13 05:15:31;;;;;;;0.00;0.00;;;11.40;99.90;;;;;;5401704;26;20000;-63
2024/04/13 05:18:00;;;;;;;0.00;0.00;;;11.40;99.90;;;;;;5402280;26;20004;-63
2024/04/13 05:20:27;;;;;;;0.00;0.00;;;11.40;99.90;;;;;;5402445;26;20049;-63
2024/04/13 05:22:54;;;;;;;0.00;0.00;;;11.40;99.90;;;;;;5401181;26;20018;-63
2024/04/13 05:25:21;;;;;;;0.00;0.00;;;11.40;99.90;;;;;;5401811;26;19999;-63
2024/04/13 05:27:48;;;;;;;0.00;0.00;;;11.40;99.90;;;;;;5400948;26;20815;-63
2024/04/13 05:30:15;;;;;;;0.00;0.00;;;11.50;99.90;;;;;;5402295;26;20003;-63
2024/04/13 05:32:43;;;;;;;0.00;0.00;;;11.50;99.90;;;;;;5398467;26;20008;-63
2024/04/13 05:35:10;;;;;;;0.00;0.00;;;11.50;99.90;;;;;;5403300;26;20570;-63
2024/04/13 05:37:37;;;;;;;0.00;0.00;;;11.50;99.90;;;;;;5397991;26;20876;-63
2024/04/13 05:40:04;;;;;;;0.00;0.00;;;11.60;99.90;;;;;;5404014;26;20370;-63
2024/04/13 05:42:31;;;;;;;0.00;0.00;;;11.60;99.90;;;;;;5401372;26;20026;-63
2024/04/13 05:44:58;;;;;;;0.00;0.00;;;11.60;99.90;;;;;;5403830;26;20007;-63
2024/04/13 05:47:25;;;;;;;0.00;0.00;;;11.70;99.90;;;;;;5401758;26;20403;-63
2024/04/13 05:49:52;;;;;;;0.00;0.00;;;11.70;99.90;;;;;;5403556;26;20014;-63
2024/04/13 05:52:19;;;;;;;0.00;0.00;;;11.70;99.90;;;;;;5403167;26;20020;-63
2024/04/13 05:54:47;;;;;;;0.00;0.00;;;11.80;99.90;;;;;;5402421;26;20018;-63
2024/04/13 05:57:14;;;;;;;0.00;0.00;;;11.80;99.90;;;;;;5402049;26;20000;-63
2024/04/13 05:59:41;;;;;;;0.00;0.00;;;11.90;99.90;;;;;;5400189;26;20014;-63
2024/04/13 06:02:08;;;;;;;0.00;0.00;;;11.90;99.90;;;;;;5402419;26;20031;-63
2024/04/13 06:04:37;;;;;;;0.10;0.10;;;12.00;99.90;;;;;;5398694;26;20011;-63
2024/04/13 06:07:04;;;;;;;0.38;0.10;;;12.00;99.90;;;;;;5399936;26;19999;-63
2024/04/13 06:09:31;;;;;;;0.00;0.00;;;12.10;99.90;;;;;;5399073;26;20018;-63
2024/04/13 06:11:58;;;;;;;0.00;0.00;;;12.10;99.90;;;;;;5403733;26;20019;-63
2024/04/13 06:14:25;;;;;;;0.00;0.00;;;12.20;99.90;;;;;;5401641;26;20018;-63
2024/04/13 06:16:52;;;;;;;0.00;0.00;;;12.20;99.90;;;;;;5386381;26;19995;-63
2024/04/13 06:19:19;;;;;;;0.00;0.00;;;12.30;99.90;;;;;;5399308;26;20007;-63
2024/04/13 06:21:47;;;;;;;0.00;0.00;;;12.30;99.90;;;;;;5402954;26;19999;-63
2024/04/13 06:24:14;;;;;;;0.00;0.00;;;12.40;99.90;;;;;;5402422;26;20958;-63
2024/04/13 06:26:41;;;;;;;0.00;0.00;;;12.40;99.90;;;;;;5402809;26;20010;-63
2024/04/13 06:29:08;;;;;;;0.05;0.05;;;12.50;99.90;;;;;;5397881;26;20022;-63
2024/04/13 06:31:35;;;;;;;0.00;0.00;;;12.50;99.90;;;;;;5401473;26;20000;-62
2024/04/13 06:34:02;;;;;;;0.00;0.00;;;12.60;99.90;;;;;;5393014;26;20882;-63
2024/04/13 06:36:29;;;;;;;0.00;0.00;;;12.70;99.90;;;;;;5392505;26;20000;-63
2024/04/13 06:38:56;;;;;;;0.00;0.00;;;12.80;99.90;;;;;;5398618;26;20503;-63
2024/04/13 06:41:24;;;;;;;0.00;0.00;;;12.90;99.90;;;;;;5402282;26;21028;-63
2024/04/13 06:43:51;;;;;;;0.00;0.00;;;12.90;99.90;;;;;;5399586;26;20003;-62
2024/04/13 06:46:18;;;;;;;0.00;0.00;;;13.00;99.90;;;;;;5389302;26;19995;-62
2024/04/13 06:48:45;;;;;;;0.00;0.00;;;13.10;99.90;;;;;;5383285;26;20007;-62
2024/04/13 06:51:12;;;;;;;0.00;0.00;;;13.20;99.90;;;;;;5371145;26;20013;-63
2024/04/13 06:53:39;;;;;;;0.00;0.00;;;13.30;99.90;;;;;;5389337;26;20004;-62
2024/04/13 06:56:08;;;;;;;0.00;0.00;;;13.40;99.90;;;;;;5383182;26;19996;-62
2024/04/13 06:58:35;;;;;;;0.00;0.00;;;13.40;99.90;;;;;;5397187;26;20460;-63
2024/04/13 07:01:02;;;;;;;0.00;0.00;;;13.50;99.90;;;;;;5401876;26;20000;-62
2024/04/13 07:03:29;;;;;;;0.10;0.10;;;13.50;99.90;;;;;;5383496;26;20516;-62
2024/04/13 07:06:00;;;;;;;0.00;0.00;;;13.50;99.90;;;;;;5373222;26;20982;-63
2024/04/13 07:08:28;;;;;;;0.00;0.00;;;13.60;99.90;;;;;;5386014;26;20025;-62
2024/04/13 07:10:55;;;;;;;0.00;0.00;;;13.70;99.90;;;;;;5395852;26;19999;-63
2024/04/13 07:13:24;;;;;;;0.00;0.00;;;13.80;99.90;;;;;;5399789;26;20022;-63
2024/04/13 07:15:51;;;;;;;0.10;0.10;;;14.00;99.90;;;;;;5402141;26;20000;-63
2024/04/13 07:18:18;;;;;;;0.00;0.00;;;14.20;99.90;;;;;;5400289;26;20390;-62
2024/04/13 07:20:45;;;;;;;0.00;0.00;;;14.40;99.90;;;;;;5401071;26;20032;-63
2024/04/13 07:23:12;;;;;;;0.05;0.05;;;14.60;99.90;;;;;;5400722;26;20087;-63
2024/04/13 07:25:39;;;;;;;0.00;0.00;;;14.80;99.90;;;;;;5400932;26;19996;-63
2024/04/13 07:28:06;;;;;;;0.28;0.05;;;14.80;99.90;;;;;;5400595;26;20008;-63
2024/04/13 07:30:33;;;;;;;0.00;0.00;;;15.00;99.90;;;;;;5400542;26;20000;-63
2024/04/13 07:33:00;;;;;;;0.30;0.10;;;15.10;99.90;;;;;;5399491;26;20017;-63
2024/04/13 07:35:27;;;;;;;0.00;0.00;;;15.30;99.90;;;;;;5391376;26;20018;-63
2024/04/13 07:37:54;;;;;;;0.00;0.00;;;15.30;99.90;;;;;;5392089;26;20000;-63
2024/04/13 07:40:27;;;;;;;0.00;0.00;;;15.30;99.90;;;;;;5389600;26;20318;-63
2024/04/13 07:42:54;;;;;;;1.20;0.20;;;15.30;91.60;;;;;;5389784;26;20039;-63
2024/04/13 07:45:21;;;;;;;0.00;0.00;;;15.40;91.70;;;;;;5401469;26;20018;-63
2024/04/13 07:47:48;;;;;;;0.00;0.00;;;15.50;97.90;;;;;;5399912;26;19999;-63
2024/04/13 07:50:16;;;;;;;0.10;0.10;;;15.60;64.40;;;;;;5400200;26;20007;-63
2024/04/13 07:52:43;;;;;;;0.00;0.00;;;15.70;49.70;;;;;;5385115;26;20102;-63
2024/04/13 07:55:10;;;;;;;0.00;0.00;;;15.80;1.00;;;;;;5387178;26;20018;-63
2024/04/13 07:57:38;;;;;;;0.00;0.00;;;15.70;1.00;;;;;;5377436;26;20011;-62
2024/04/13 08:00:06;;;;;;;0.00;0.00;;;15.80;1.00;;;;;;5386074;26;20007;-63
2024/04/13 08:02:33;;;;;;;0.57;0.40;;;15.90;1.00;;;;;;5378598;26;20338;-63
2024/04/13 08:05:00;;;;;;;0.00;0.00;;;16.00;99.90;;;;;;5386528;26;20461;-62
2024/04/13 08:07:27;;;;;;;0.00;0.00;;;16.00;99.90;;;;;;5404074;26;19999;-63
2024/04/13 08:09:54;;;;;;;0.00;0.00;;;16.00;99.90;;;;;;5401288;26;20008;-62
2024/04/13 08:12:21;;;;;;;0.00;0.00;;;16.00;99.90;;;;;;5401938;26;20529;-62
2024/04/13 08:14:52;;;;;;;0.03;0.03;;;16.10;99.90;;;;;;5395646;26;20030;-62
2024/04/13 08:17:22;;;;;;;0.10;0.10;;;16.20;99.90;;;;;;5404213;26;20011;-62
2024/04/13 08:19:49;;;;;;;0.00;0.00;;;16.30;99.90;;;;;;5395751;26;20023;-62
2024/04/13 08:22:17;;;;;;;0.00;0.00;;;16.30;99.90;;;;;;5401900;26;20047;-64
2024/04/13 08:24:44;;;;;;;0.10;0.10;;;16.50;99.90;;;;;;5402667;26;20008;-62
2024/04/13 08:27:11;;;;;;;0.00;0.00;;;16.50;99.90;;;;;;5403250;26;20004;-62
2024/04/13 08:29:38;;;;;;;0.20;0.10;;;16.60;99.90;;;;;;5401978;26;20008;-62
2024/04/13 08:32:05;;;;;;;0.00;0.00;;;16.60;99.90;;;;;;5400608;26;20018;-62
2024/04/13 08:34:33;;;;;;;0.00;0.00;;;16.90;99.90;;;;;;5397339;26;20007;-63
2024/04/13 08:37:00;;;;;;;0.10;0.10;;;17.10;99.90;;;;;;5400194;26;20007;-62
2024/04/13 08:39:27;;;;;;;0.00;0.00;;;17.30;99.90;;;;;;5394758;26;20021;-62
2024/04/13 08:42:05;;;;;;;0.00;0.00;;;17.50;99.90;;;;;;5388228;26;20342;-62
2024/04/13 08:44:34;;;;;;;0.00;0.00;;;17.50;63.00;;;;;;5397773;26;20007;-62
2024/04/13 08:47:02;;;;;;;0.00;0.00;;;17.70;1.00;;;;;;5394588;26;20007;-62
2024/04/13 08:49:39;;;;;;;0.00;0.00;;;17.70;99.90;;;;;;5402958;26;20018;-62
2024/04/13 08:52:07;;;;;;;0.00;0.00;;;17.70;99.90;;;;;;5403320;26;19999;-62
2024/04/13 08:54:34;;;;;;;0.00;0.00;;;17.50;99.90;;;;;;5384002;26;20403;-62
2024/04/13 08:57:04;;;;;;;0.00;0.00;;;17.30;99.90;;;;;;5399033;26;20000;-61
2024/04/13 08:59:34;;;;;;;0.00;0.00;;;17.40;99.90;;;;;;5398884;26;20016;-62
2024/04/13 09:02:04;;;;;;;0.00;0.00;;;17.40;99.90;;;;;;5401777;26;20022;-62
2024/04/13 09:04:34;;;;;;;0.00;0.00;;;17.40;99.90;;;;;;5398947;26;20003;-62
2024/04/13 09:07:01;;;;;;;0.05;0.00;;;17.30;99.90;;;;;;5395981;26;20004;-62
2024/04/13 09:09:29;;;;;;;0.10;0.00;;;17.20;99.90;;;;;;5399087;26;20018;-62
2024/04/13 09:11:57;;;;;;;0.00;0.00;;;17.10;99.90;;;;;;5393888;26;20345;-62
2024/04/13 09:14:26;;;;;;;0.00;0.00;;;17.00;99.90;;;;;;5395757;26;20030;-62
2024/04/13 09:16:53;;;;;;;0.00;0.00;;;17.20;99.90;;;;;;5401180;26;20008;-62
2024/04/13 09:19:24;;;;;;;0.00;0.00;;;17.40;99.90;;;;;;5397003;26;20014;-62
2024/04/13 09:21:52;;;;;;;0.00;0.00;;;17.50;99.90;;;;;;5402400;26;20554;-62
2024/04/13 09:24:19;;;;;;;0.03;0.03;;;17.70;99.90;;;;;;5398815;26;20469;-62
2024/04/13 09:26:46;;;;;;;0.00;0.00;;;17.60;99.90;;;;;;5402928;26;20014;-62
2024/04/13 09:29:25;;;;;;;0.00;0.00;;;17.70;99.90;;;;;;5401449;26;20018;-62
2024/04/13 09:31:52;;;;;;;0.32;0.10;;;17.80;99.90;;;;;;5400470;26;20021;-62
2024/04/13 09:34:26;;;;;;;0.00;0.00;;;17.90;99.90;;;;;;5400362;26;20742;-62
2024/04/13 09:37:07;;;;;;;0.00;0.00;;;18.00;99.90;;;;;;5400673;26;20022;-62
2024/04/13 09:39:34;;;;;;;0.00;0.00;;;18.10;99.90;;;;;;5398341;26;20003;-62
2024/04/13 09:42:11;;;;;;;0.00;0.00;;;18.10;99.90;;;;;;5399055;26;20360;-61
2024/04/13 09:44:39;;;;;;;0.15;0.15;;;18.20;99.90;;;;;;5391946;26;20013;-62
2024/04/13 09:47:06;;;;;;;0.00;0.00;;;18.30;99.90;;;;;;5400092;26;20382;-62
2024/04/13 09:49:33;;;;;;;0.00;0.00;;;18.30;99.90;;;;;;5400009;26;20007;-62
2024/04/13 09:52:00;;;;;;;1.25;0.10;;;18.50;99.90;;;;;;5392807;26;20007;-62
2024/04/13 09:54:29;;;;;;;0.00;0.00;;;18.50;99.90;;;;;;5399380;26;20570;-62
2024/04/13 09:56:58;;;;;;;0.52;0.10;;;18.50;99.90;;;;;;5399338;26;20603;-62
2024/04/13 09:59:27;;;;;;;0.00;0.00;;;18.60;99.90;;;;;;5402372;26;20007;-62
2024/04/13 10:01:55;;;;;;;0.00;0.00;;;18.70;99.90;;;;;;5402024;26;20349;-62
2024/04/13 10:04:22;;;;;;;0.10;0.10;;;18.80;99.90;;;;;;5386805;26;20605;-62
2024/04/13 10:06:51;;;;;;;0.00;0.00;;;18.90;99.90;;;;;;5395005;26;20007;-61
2024/04/13 10:09:20;;;;;;;0.08;0.03;;;19.00;99.90;;;;;;5399744;26;20008;-61
2024/04/13 10:11:51;;;;;;;0.10;0.00;;;19.10;99.90;;;;;;5402504;26;19999;-62
2024/04/13 10:14:22;;;;;;;0.00;0.00;;;19.20;99.90;;;;;;5398001;26;20018;-61
2024/04/13 10:16:51;;;;;;;0.13;0.08;;;19.30;99.90;;;;;;5382760;26;20000;-62
2024/04/13 10:19:19;;;;;;;0.00;0.00;;;19.30;99.90;;;;;;5382135;26;20021;-62
2024/04/13 10:21:59;;;;;;;0.00;0.00;;;19.30;99.90;;;;;;5395791;26;20008;-62
2024/04/13 10:24:29;;;;;;;0.05;0.00;;;19.50;99.90;;;;;;5392539;26;20030;-62
2024/04/13 10:27:09;;;;;;;0.00;0.00;;;19.60;99.90;;;;;;5393998;26;20616;-61
2024/04/13 10:29:43;;;;;;;0.00;0.00;;;19.70;99.90;;;;;;5395398;26;20455;-61
2024/04/13 10:32:17;;;;;;;0.03;0.03;;;19.60;99.90;;;;;;5395415;26;20030;-62
2024/04/13 10:34:44;;;;;;;0.00;0.00;;;19.70;99.90;;;;;;5397756;26;20021;-62
2024/04/13 10:37:46;;;;;;;0.00;0.00;;;19.70;99.90;;;;;;5399179;26;20007;-62
2024/04/13 10:40:24;;;;;;;0.10;0.10;;;19.60;99.90;;;;;;5223470;27;20033;-62
2024/04/13 10:42:51;;;;;;;0.00;0.00;;;19.80;99.90;;;;;;5373994;26;20345;-62
2024/04/13 10:45:19;;;;;;;0.00;0.00;;;19.90;99.90;;;;;;5399263;26;20010;-62
2024/04/13 10:47:46;;;;;;;0.08;0.08;;;19.90;99.90;;;;;;5401077;26;20003;-62
2024/04/13 10:50:17;;;;;;;0.10;0.10;;;19.90;99.90;;;;;;5397580;26;20007;-61
2024/04/13 10:52:44;;;;;;;0.00;0.00;;;19.90;99.90;;;;;;5397830;26;20419;-62
2024/04/13 10:55:18;;;;;;;0.08;0.08;;;19.80;99.90;;;;;;5390927;26;20004;-62
2024/04/13 10:57:50;;;;;;;0.00;0.00;;;19.80;99.90;;;;;;5399668;26;19999;-62
2024/04/13 11:00:18;;;;;;;0.05;0.05;;;19.70;99.90;;;;;;5391317;26;20497;-62
2024/04/13 11:02:50;;;;;;;0.00;0.00;;;19.70;99.90;;;;;;5394901;26;20218;-62
2024/04/13 11:05:20;;;;;;;0.00;0.00;;;19.70;99.90;;;;;;5393092;26;20018;-62
2024/04/13 11:07:48;;;;;;;0.00;0.00;;;19.70;99.90;;;;;;5381398;26;20573;-62
2024/04/13 11:10:15;;;;;;;0.10;0.10;;;19.80;99.90;;;;;;5392579;26;20450;-62
2024/04/13 11:12:42;;;;;;;0.00;0.00;;;19.90;99.90;;;;;;5401777;26;19995;-62
2024/04/13 11:15:09;;;;;;;0.00;0.00;;;19.90;99.90;;;;;;5389643;26;20008;-62
2024/04/13 11:17:36;;;;;;;0.08;0.00;;;19.90;99.90;;;;;;5399517;26;20008;-61
2024/04/13 11:20:04;;;;;;;0.00;0.00;;;20.00;99.90;;;;;;5392619;26;20381;-62
2024/04/13 11:22:31;;;;;;;0.00;0.00;;;20.00;99.90;;;;;;5399413;26;20007;-61
2024/04/13 11:24:58;;;;;;;0.00;0.00;;;20.10;99.90;;;;;;5396215;26;20026;-62
2024/04/13 11:27:25;;;;;;;0.00;0.00;;;20.10;99.90;;;;;;5401501;26;20007;-62
2024/04/13 11:29:53;;;;;;;0.08;0.08;;;20.00;99.90;;;;;;5400279;26;20461;-62
2024/04/13 11:32:20;;;;;;;0.00;0.00;;;20.00;99.90;;;;;;5399798;26;20023;-62
2024/04/13 11:34:47;;;;;;;0.00;0.00;;;20.10;99.90;;;;;;5399049;26;20018;-62
2024/04/13 11:37:15;;;;;;;0.10;0.10;;;20.10;99.90;;;;;;5400012;26;20014;-62
2024/04/13 11:39:42;;;;;;;0.10;0.10;;;20.10;99.90;;;;;;5399364;26;20003;-62
2024/04/13 11:42:13;;;;;;;0.00;0.00;;;20.20;99.90;;;;;;5398607;26;20010;-62
2024/04/13 11:44:39;;;;;;;0.10;0.10;;;20.30;99.90;;;;;;5392143;26;20011;-62
2024/04/13 11:47:06;;;;;;;0.32;0.32;;;20.30;99.90;;;;;;5395944;26;20392;-62
2024/04/13 11:49:33;;;;;;;0.20;0.15;;;20.40;99.90;;;;;;5392710;26;20341;-63
2024/04/13 11:51:59;;;;;;;0.00;0.00;;;20.50;99.90;;;;;;5387997;26;20362;-62
2024/04/13 11:54:27;;;;;;;0.10;0.10;;;20.50;99.90;;;;;;5397230;26;20011;-62
2024/04/13 11:56:57;;;;;;;0.10;0.10;;;20.50;99.90;;;;;;5402005;26;20818;-62
2024/04/13 11:59:23;;;;;;;0.10;0.10;;;20.60;99.90;;;;;;5397045;26;19999;-62
2024/04/13 12:01:50;;;;;;;0.60;0.30;;;20.50;99.90;;;;;;5381030;26;20035;-62
2024/04/13 12:04:17;;;;;;;0.30;0.30;;;20.50;99.90;;;;;;5383141;26;20267;-62
2024/04/13 12:06:43;;;;;;;0.15;0.00;;;20.60;99.90;;;;;;5397931;26;20007;-62
2024/04/13 12:09:09;;;;;;;0.10;0.10;;;20.70;99.90;;;;;;5386461;26;20453;-62
2024/04/13 12:11:35;;;;;;;0.10;0.10;;;20.80;99.90;;;;;;5402920;26;20003;-62
2024/04/13 12:14:03;;;;;;;0.00;0.00;;;20.80;99.90;;;;;;5403682;26;20023;-62
2024/04/13 12:16:30;;;;;;;0.03;0.03;;;20.60;99.90;;;;;;5404011;26;20000;-62
2024/04/13 12:18:55;;;;;;;0.00;0.00;;;20.50;99.90;;;;;;5404965;26;20015;-62
2024/04/13 12:21:21;;;;;;;0.10;0.10;;;20.50;99.90;;;;;;5397639;26;20340;-62
2024/04/13 12:23:47;;;;;;;0.10;0.10;;;20.50;99.90;;;;;;5404408;26;20396;-62
2024/04/13 12:26:13;;;;;;;0.00;0.00;;;20.60;99.90;;;;;;5400722;26;19996;-62
2024/04/13 12:28:40;;;;;;;0.25;0.20;;;20.80;99.90;;;;;;5403582;26;20014;-62
2024/04/13 12:31:06;;;;;;;0.05;0.05;;;20.80;99.90;;;;;;5402451;26;20437;-62
2024/04/13 12:33:38;;;;;;;0.10;0.10;;;20.80;99.90;;;;;;5401727;26;20061;-62
2024/04/13 12:36:05;;;;;;;0.17;0.17;;;20.90;99.90;;;;;;5402660;26;19999;-62
2024/04/13 12:38:31;;;;;;;0.00;0.00;;;21.00;99.90;;;;;;5401683;26;20656;-62
2024/04/13 12:40:57;;;;;;;0.10;0.10;;;21.00;99.90;;;;;;5398473;26;20003;-62
2024/04/13 12:43:22;;;;;;;0.10;0.10;;;21.00;99.90;;;;;;5401328;26;19996;-62
2024/04/13 12:45:48;;;;;;;0.10;0.10;;;20.90;99.90;;;;;;5403521;26;20015;-63
2024/04/13 12:48:14;;;;;;;0.20;0.20;;;20.80;99.90;;;;;;5401269;26;20047;-63
2024/04/13 12:50:40;;;;;;;0.13;0.13;;;20.70;99.90;;;;;;5399694;26;20065;-63
2024/04/13 12:53:06;;;;;;;0.35;0.10;;;20.60;99.90;;;;;;5397564;26;20030;-62